createdAt,value
2022-08-19T00:01:31.380Z,22.42
2022-08-19T00:04:03.521Z,22.36
2022-08-19T00:06:30.942Z,22.32
2022-08-19T00:08:58.676Z,22.35
2022-08-19T00:11:27.019Z,22.32
2022-08-19T00:13:54.446Z,22.36
2022-08-19T00:16:26.125Z,22.36
2022-08-19T00:18:54.622Z,22.32
2022-08-19T00:21:21.489Z,22.33
2022-08-19T00:23:48.714Z,22.33
2022-08-19T00:26:15.486Z,22.32
2022-08-19T00:28:42.295Z,22.31
2022-08-19T00:31:09.983Z,22.26
2022-08-19T00:33:36.987Z,22.20
2022-08-19T00:36:07.388Z,22.17
2022-08-19T00:38:38.029Z,22.15
2022-08-19T00:41:06.816Z,22.15
2022-08-19T00:43:33.787Z,22.13
2022-08-19T00:46:00.889Z,22.19
2022-08-19T00:48:27.578Z,22.13
2022-08-19T00:50:55.345Z,22.07
2022-08-19T00:53:24.528Z,22.05
2022-08-19T00:55:53.101Z,22.03
2022-08-19T00:58:21.361Z,22.00
2022-08-19T01:00:49.157Z,21.90
2022-08-19T01:03:19.195Z,21.93
2022-08-19T01:05:47.233Z,21.90
2022-08-19T01:08:16.385Z,21.88
2022-08-19T01:10:47.826Z,21.85
2022-08-19T01:13:20.634Z,21.88
2022-08-19T01:15:51.329Z,21.85
2022-08-19T01:18:19.630Z,21.82
2022-08-19T01:20:46.512Z,21.83
2022-08-19T01:23:13.758Z,21.84
2022-08-19T01:25:45.808Z,21.82
2022-08-19T01:28:40.189Z,21.81
2022-08-19T01:31:26.889Z,21.78
2022-08-19T01:33:55.830Z,21.74
2022-08-19T01:36:38.985Z,21.71
2022-08-19T01:39:13.408Z,21.67
2022-08-19T01:41:40.410Z,21.65
2022-08-19T01:44:18.322Z,21.59
2022-08-19T01:46:46.967Z,21.57
2022-08-19T01:49:13.637Z,21.54
2022-08-19T01:51:40.627Z,21.55
2022-08-19T01:54:11.665Z,21.46
2022-08-19T01:56:39.354Z,21.44
2022-08-19T01:59:11.608Z,21.41
2022-08-19T02:01:38.372Z,21.38
2022-08-19T02:04:06.145Z,21.38
2022-08-19T02:06:34.193Z,21.37
2022-08-19T02:09:01.185Z,21.38
2022-08-19T02:11:36.425Z,21.37
2022-08-19T02:14:06.912Z,21.32
2022-08-19T02:16:34.183Z,21.39
2022-08-19T02:19:03.687Z,21.40
2022-08-19T02:21:31.445Z,21.22
2022-08-19T02:23:58.692Z,21.09
2022-08-19T02:26:27.506Z,21.03
2022-08-19T02:28:55.612Z,21.01
2022-08-19T02:31:25.651Z,21.03
2022-08-19T02:33:56.801Z,21.09
2022-08-19T02:36:25.504Z,21.10
2022-08-19T02:38:54.844Z,21.08
2022-08-19T02:41:34.090Z,21.09
2022-08-19T02:44:26.655Z,21.08
2022-08-19T02:46:51.680Z,21.08
2022-08-19T02:49:19.674Z,21.11
2022-08-19T02:51:47.050Z,21.01
2022-08-19T02:54:15.552Z,21.09
2022-08-19T02:56:44.116Z,21.09
2022-08-19T02:59:13.044Z,21.13
2022-08-19T03:01:42.440Z,21.12
2022-08-19T03:04:13.665Z,21.11
2022-08-19T03:06:42.345Z,21.12
2022-08-19T03:09:09.640Z,21.08
2022-08-19T03:11:36.473Z,21.05
2022-08-19T03:14:04.742Z,21.03
2022-08-19T03:16:34.199Z,20.98
2022-08-19T03:19:01.942Z,21.00
2022-08-19T03:21:31.462Z,21.01
2022-08-19T03:24:00.883Z,21.03
2022-08-19T03:26:28.137Z,21.10
2022-08-19T03:28:58.380Z,21.06
2022-08-19T03:31:43.583Z,21.08
2022-08-19T03:34:15.873Z,21.13
2022-08-19T03:36:42.737Z,21.24
2022-08-19T03:39:11.272Z,21.26
2022-08-19T03:41:44.992Z,21.26
2022-08-19T03:44:18.041Z,21.21
2022-08-19T03:46:46.509Z,21.28
2022-08-19T03:49:14.389Z,21.29
2022-08-19T03:51:42.562Z,21.28
2022-08-19T03:54:11.703Z,21.21
2022-08-19T03:56:40.369Z,21.18
2022-08-19T03:59:11.859Z,21.11
2022-08-19T04:01:38.588Z,21.00
2022-08-19T04:04:05.481Z,21.01
2022-08-19T04:06:39.548Z,20.98
2022-08-19T04:09:09.555Z,20.91
2022-08-19T04:11:44.470Z,20.93
2022-08-19T04:14:23.763Z,20.85
2022-08-19T04:16:51.339Z,20.83
2022-08-19T04:19:19.139Z,20.83
2022-08-19T04:21:51.078Z,20.74
2022-08-19T04:24:18.757Z,20.58
2022-08-19T04:26:45.929Z,20.54
2022-08-19T04:29:15.976Z,20.55
2022-08-19T04:31:44.479Z,20.54
2022-08-19T04:34:13.013Z,20.46
2022-08-19T04:36:42.359Z,20.47
2022-08-19T04:39:12.224Z,20.49
2022-08-19T04:41:57.464Z,20.45
2022-08-19T04:44:24.195Z,20.48
2022-08-19T04:46:52.064Z,20.49
2022-08-19T04:49:26.545Z,20.53
2022-08-19T04:51:55.329Z,20.58
2022-08-19T04:54:37.796Z,20.58
2022-08-19T04:57:08.182Z,20.54
2022-08-19T04:59:35.665Z,20.53
2022-08-19T05:02:02.510Z,20.51
2022-08-19T05:04:33.065Z,20.52
2022-08-19T05:07:02.179Z,20.52
2022-08-19T05:09:32.897Z,20.51
2022-08-19T05:12:16.879Z,20.46
2022-08-19T05:14:44.378Z,20.45
2022-08-19T05:17:27.226Z,20.34
2022-08-19T05:20:14.583Z,20.22
2022-08-19T05:22:42.309Z,20.25
2022-08-19T05:25:13.822Z,20.25
2022-08-19T05:27:42.032Z,20.23
2022-08-19T05:30:09.634Z,20.31
2022-08-19T05:32:36.370Z,20.34
2022-08-19T05:35:03.425Z,20.31
2022-08-19T05:37:30.184Z,20.29
2022-08-19T05:39:56.966Z,20.37
2022-08-19T05:42:24.250Z,20.39
2022-08-19T05:44:51.854Z,20.44
2022-08-19T05:47:20.811Z,20.42
2022-08-19T05:49:48.280Z,20.51
2022-08-19T05:52:16.990Z,20.53
2022-08-19T05:54:51.296Z,20.56
2022-08-19T05:57:19.363Z,20.51
2022-08-19T05:59:53.065Z,20.54
2022-08-19T06:02:26.046Z,20.50
2022-08-19T06:04:52.815Z,20.50
2022-08-19T06:07:20.576Z,20.51
2022-08-19T06:09:59.759Z,20.34
2022-08-19T06:12:29.764Z,20.22
2022-08-19T06:15:01.229Z,20.27
2022-08-19T06:17:31.491Z,20.29
2022-08-19T06:19:59.778Z,20.34
2022-08-19T06:22:26.974Z,20.43
2022-08-19T06:24:55.178Z,20.40
2022-08-19T06:27:22.500Z,20.40
2022-08-19T06:29:49.218Z,20.45
2022-08-19T06:32:17.447Z,20.44
2022-08-19T06:34:44.217Z,20.46
2022-08-19T06:37:12.482Z,20.51
2022-08-19T06:39:40.858Z,20.58
2022-08-19T06:42:10.964Z,20.62
2022-08-19T06:44:42.601Z,20.64
2022-08-19T06:47:14.685Z,20.60
2022-08-19T06:49:42.709Z,20.64
2022-08-19T06:52:13.841Z,20.58
2022-08-19T06:54:55.557Z,20.58
2022-08-19T06:57:24.411Z,20.58
2022-08-19T06:59:51.293Z,20.61
2022-08-19T07:05:06.689Z,20.76
2022-08-19T07:07:33.716Z,20.83
2022-08-19T07:10:01.968Z,20.88
2022-08-19T07:12:38.033Z,20.89
2022-08-19T07:15:09.848Z,20.94
2022-08-19T07:17:38.426Z,20.99
2022-08-19T07:20:09.642Z,20.99
2022-08-19T07:22:38.603Z,21.05
2022-08-19T07:25:07.385Z,21.07
2022-08-19T07:27:35.047Z,21.12
2022-08-19T07:30:02.341Z,21.13
2022-08-19T07:32:29.034Z,21.12
2022-08-19T07:34:57.017Z,21.10
2022-08-19T07:37:32.542Z,21.13
2022-08-19T07:40:00.301Z,21.23
2022-08-19T07:42:27.780Z,21.28
2022-08-19T07:44:54.449Z,21.39
2022-08-19T07:47:49.838Z,21.44
2022-08-19T07:50:10.106Z,21.45
2022-08-19T07:52:39.651Z,21.54
2022-08-19T07:55:40.674Z,21.60
2022-08-19T07:57:56.110Z,21.68
2022-08-19T08:00:24.308Z,21.76
2022-08-19T08:02:52.184Z,21.79
2022-08-19T08:05:43.432Z,21.88
2022-08-19T08:08:29.883Z,21.98
2022-08-19T08:10:57.473Z,22.10
2022-08-19T08:13:25.362Z,22.23
2022-08-19T08:15:55.925Z,22.26
2022-08-19T08:18:27.642Z,22.31
2022-08-19T08:20:57.868Z,22.33
2022-08-19T08:23:28.014Z,22.29
2022-08-19T08:25:58.253Z,22.31
2022-08-19T08:28:26.169Z,22.42
2022-08-19T08:30:56.678Z,22.38
2022-08-19T08:33:32.769Z,22.36
2022-08-19T08:36:12.011Z,22.45
2022-08-19T08:38:40.516Z,22.47
2022-08-19T08:41:34.502Z,22.60
2022-08-19T08:44:02.170Z,22.67
2022-08-19T08:46:41.181Z,22.73
2022-08-19T08:49:09.967Z,22.73
2022-08-19T08:51:59.329Z,22.90
2022-08-19T08:54:34.760Z,22.96
2022-08-19T08:57:05.754Z,22.95
2022-08-19T08:59:36.785Z,23.08
2022-08-19T09:02:03.787Z,23.16
2022-08-19T09:04:30.598Z,23.32
2022-08-19T09:07:00.388Z,23.40
2022-08-19T09:09:42.163Z,23.44
2022-08-19T09:12:27.026Z,23.44
2022-08-19T09:15:05.330Z,23.47
2022-08-19T09:17:34.552Z,23.51
2022-08-19T09:20:32.145Z,23.61
2022-08-19T09:22:59.654Z,23.65
2022-08-19T09:25:29.485Z,23.84
2022-08-19T09:28:03.063Z,23.98
2022-08-19T09:30:36.165Z,24.18
2022-08-19T09:33:02.833Z,24.29
2022-08-19T09:35:30.995Z,24.48
2022-08-19T09:37:59.473Z,24.54
2022-08-19T09:40:31.916Z,24.34
2022-08-19T09:43:11.455Z,24.20
2022-08-19T09:45:40.413Z,24.13
2022-08-19T09:48:07.344Z,24.25
2022-08-19T09:50:39.506Z,24.26
2022-08-19T09:53:19.397Z,24.13
2022-08-19T09:55:46.149Z,24.00
2022-08-19T09:58:13.021Z,23.92
2022-08-19T10:00:39.887Z,23.98
2022-08-19T10:03:07.113Z,24.17
2022-08-19T10:05:50.477Z,24.18
2022-08-19T10:08:40.963Z,24.40
2022-08-19T10:11:28.449Z,24.49
2022-08-19T10:14:06.958Z,24.50
2022-08-19T10:16:33.927Z,24.66
2022-08-19T10:19:10.458Z,24.54
2022-08-19T10:21:37.346Z,24.70
2022-08-19T10:24:07.324Z,24.73
2022-08-19T10:26:38.228Z,24.80
2022-08-19T10:29:06.150Z,25.01
2022-08-19T10:32:00.737Z,25.06
2022-08-19T10:34:27.845Z,24.84
2022-08-19T10:37:00.493Z,24.86
2022-08-19T10:39:31.285Z,24.96
2022-08-19T10:41:58.948Z,24.95
2022-08-19T10:44:32.182Z,24.97
2022-08-19T10:47:00.079Z,25.15
2022-08-19T10:49:26.847Z,25.34
2022-08-19T10:52:18.535Z,25.09
2022-08-19T10:55:08.627Z,25.08
2022-08-19T10:57:59.427Z,24.96
2022-08-19T11:00:24.337Z,25.28
2022-08-19T11:02:51.759Z,25.79
2022-08-19T11:05:19.217Z,26.05
2022-08-19T11:07:46.149Z,26.36
2022-08-19T11:10:19.470Z,26.74
2022-08-19T11:12:48.208Z,26.93
2022-08-19T11:15:15.357Z,27.27
2022-08-19T11:17:42.632Z,27.16
2022-08-19T11:20:10.108Z,26.94
2022-08-19T11:22:41.675Z,26.89
2022-08-19T11:25:12.218Z,27.16
2022-08-19T11:27:43.961Z,27.23
2022-08-19T11:30:13.011Z,27.45
2022-08-19T11:32:47.127Z,27.56
2022-08-19T11:35:15.536Z,27.50
2022-08-19T11:37:42.209Z,27.35
2022-08-19T11:40:09.957Z,27.24
2022-08-19T11:42:55.320Z,26.82
2022-08-19T11:45:22.567Z,26.83
2022-08-19T11:47:49.519Z,26.81
2022-08-19T11:50:17.474Z,26.60
2022-08-19T11:52:45.710Z,26.43
2022-08-19T11:55:14.234Z,26.22
2022-08-19T11:57:42.227Z,26.23
2022-08-19T12:00:10.809Z,26.56
2022-08-19T12:02:37.465Z,26.65
2022-08-19T12:05:06.937Z,26.83
2022-08-19T12:07:35.819Z,26.99
2022-08-19T12:10:02.464Z,27.01
2022-08-19T12:12:30.353Z,27.18
2022-08-19T12:14:59.332Z,27.06
2022-08-19T12:17:27.437Z,27.06
2022-08-19T12:19:54.671Z,27.04
2022-08-19T12:22:21.815Z,26.98
2022-08-19T12:24:51.206Z,26.85
2022-08-19T12:27:32.037Z,26.83
2022-08-19T12:30:07.270Z,26.94
2022-08-19T12:32:34.883Z,26.99
2022-08-19T12:35:02.212Z,27.05
2022-08-19T12:37:28.952Z,27.01
2022-08-19T12:39:55.641Z,26.90
2022-08-19T12:42:23.769Z,26.97
2022-08-19T12:44:52.925Z,26.98
2022-08-19T12:47:19.742Z,27.22
2022-08-19T12:49:53.094Z,27.34
2022-08-19T12:52:23.247Z,27.26
2022-08-19T12:54:54.163Z,27.20
2022-08-19T12:57:24.380Z,27.26
2022-08-19T12:59:59.049Z,27.55
2022-08-19T13:02:25.700Z,27.39
2022-08-19T13:04:52.334Z,27.59
2022-08-19T13:07:19.027Z,27.67
2022-08-19T13:09:45.811Z,27.59
2022-08-19T13:12:14.120Z,27.62
2022-08-19T13:14:41.533Z,27.63
2022-08-19T13:17:09.371Z,27.60
2022-08-19T13:19:37.811Z,27.67
2022-08-19T13:22:04.532Z,27.51
2022-08-19T13:24:41.969Z,27.52
2022-08-19T13:27:11.991Z,27.67
2022-08-19T13:29:59.843Z,27.68
2022-08-19T13:32:44.998Z,27.60
2022-08-19T13:35:16.235Z,27.69
2022-08-19T13:37:43.867Z,27.82
2022-08-19T13:40:16.679Z,27.92
2022-08-19T13:42:44.869Z,28.01
2022-08-19T13:45:12.714Z,27.98
2022-08-19T13:47:45.957Z,27.75
2022-08-19T13:50:14.544Z,27.62
2022-08-19T13:52:41.696Z,27.37
2022-08-19T13:55:09.666Z,27.25
2022-08-19T13:57:39.531Z,27.26
2022-08-19T14:00:13.547Z,27.12
2022-08-19T14:02:41.214Z,27.12
2022-08-19T14:05:10.482Z,27.30
2022-08-19T14:07:37.421Z,27.42
2022-08-19T14:10:05.982Z,27.22
2022-08-19T14:12:33.260Z,27.16
2022-08-19T14:15:00.777Z,27.01
2022-08-19T14:17:27.389Z,26.93
2022-08-19T14:19:58.624Z,27.00
2022-08-19T14:22:30.080Z,27.03
2022-08-19T14:24:57.998Z,27.24
2022-08-19T14:27:26.267Z,27.46
2022-08-19T14:29:53.725Z,27.39
2022-08-19T14:32:20.573Z,27.25
2022-08-19T14:34:47.778Z,26.86
2022-08-19T14:37:15.717Z,26.90
2022-08-19T14:39:43.136Z,27.17
2022-08-19T14:42:11.472Z,27.30
2022-08-19T14:44:39.157Z,27.34
2022-08-19T14:47:08.059Z,27.31
2022-08-19T14:49:43.058Z,27.28
2022-08-19T14:52:12.841Z,27.07
2022-08-19T14:54:53.146Z,27.14
2022-08-19T14:57:21.639Z,27.15
2022-08-19T14:59:50.976Z,27.16
2022-08-19T15:02:34.494Z,27.20
2022-08-19T15:05:01.987Z,27.18
2022-08-19T15:07:30.476Z,27.28
2022-08-19T15:09:57.811Z,27.31
2022-08-19T15:12:25.204Z,27.36
2022-08-19T15:14:56.002Z,27.51
2022-08-19T15:17:41.476Z,27.51
2022-08-19T15:20:12.225Z,27.51
2022-08-19T15:22:39.274Z,27.67
2022-08-19T15:25:08.272Z,27.69
2022-08-19T15:27:35.660Z,27.64
2022-08-19T15:30:02.825Z,27.65
2022-08-19T15:32:30.447Z,27.73
2022-08-19T15:34:57.248Z,27.79
2022-08-19T15:37:24.465Z,27.88
2022-08-19T15:39:51.519Z,27.79
2022-08-19T15:42:22.564Z,27.67
2022-08-19T15:45:00.735Z,27.70
2022-08-19T15:47:35.163Z,27.80
2022-08-19T15:50:29.064Z,27.88
2022-08-19T15:52:58.578Z,27.88
2022-08-19T15:55:34.535Z,27.69
2022-08-19T15:58:28.793Z,27.66
2022-08-19T16:01:27.255Z,27.32
2022-08-19T16:04:15.710Z,27.19
2022-08-19T16:06:46.647Z,27.16
2022-08-19T16:09:15.399Z,27.06
2022-08-19T16:11:46.466Z,27.16
2022-08-19T16:14:18.682Z,27.33
2022-08-19T16:16:47.347Z,27.34
2022-08-19T16:19:16.250Z,27.33
2022-08-19T16:21:45.537Z,27.31
2022-08-19T16:24:14.281Z,27.36
2022-08-19T16:26:42.431Z,27.55
2022-08-19T16:29:12.095Z,27.58
2022-08-19T16:31:41.961Z,27.51
2022-08-19T16:34:08.645Z,27.39
2022-08-19T16:36:35.390Z,27.28
2022-08-19T16:39:03.751Z,27.25
2022-08-19T16:41:30.390Z,27.25
2022-08-19T16:43:57.193Z,27.07
2022-08-19T16:46:24.639Z,26.97
2022-08-19T16:48:54.257Z,26.79
2022-08-19T16:51:22.873Z,26.73
2022-08-19T16:53:53.144Z,26.65
2022-08-19T16:56:28.530Z,26.59
2022-08-19T16:58:56.083Z,26.81
2022-08-19T17:01:22.842Z,27.01
2022-08-19T17:03:52.727Z,27.23
2022-08-19T17:06:24.601Z,27.34
2022-08-19T17:08:55.445Z,27.34
2022-08-19T17:11:24.380Z,27.44
2022-08-19T17:13:51.247Z,27.30
2022-08-19T17:16:20.059Z,27.12
2022-08-19T17:18:46.820Z,26.94
2022-08-19T17:21:13.631Z,26.69
2022-08-19T17:23:44.175Z,26.57
2022-08-19T17:26:17.957Z,26.30
2022-08-19T17:28:46.377Z,26.29
2022-08-19T17:31:13.172Z,26.21
2022-08-19T17:33:41.358Z,26.12
2022-08-19T17:36:11.914Z,26.08
2022-08-19T17:38:47.569Z,25.95
2022-08-19T17:41:15.686Z,25.95
2022-08-19T17:43:43.753Z,25.81
2022-08-19T17:46:18.247Z,25.78
2022-08-19T17:48:51.893Z,25.74
2022-08-19T17:51:35.827Z,25.68
2022-08-19T17:54:09.077Z,25.65
2022-08-19T17:56:43.316Z,25.60
2022-08-19T17:59:13.926Z,25.60
2022-08-19T18:01:53.558Z,25.61
2022-08-19T18:04:23.051Z,25.60
2022-08-19T18:06:53.119Z,25.55
2022-08-19T18:09:41.203Z,25.55
2022-08-19T18:12:09.751Z,25.50
2022-08-19T18:14:39.395Z,25.49
2022-08-19T18:17:09.777Z,25.52
2022-08-19T18:19:41.525Z,25.49
2022-08-19T18:22:22.716Z,25.49
2022-08-19T18:24:50.821Z,25.38
2022-08-19T18:27:17.537Z,25.34
2022-08-19T18:29:45.044Z,25.26
2022-08-19T18:32:15.100Z,25.27
2022-08-19T18:34:43.017Z,25.28
2022-08-19T18:37:10.445Z,25.27
2022-08-19T18:39:55.944Z,25.23
2022-08-19T18:42:41.588Z,25.19
2022-08-19T18:45:28.350Z,25.17
2022-08-19T18:48:27.131Z,25.21
2022-08-19T18:50:56.642Z,25.12
2022-08-19T18:53:23.497Z,25.13
2022-08-19T18:55:52.022Z,25.14
2022-08-19T18:58:19.645Z,25.03
2022-08-19T19:00:48.723Z,24.99
2022-08-19T19:03:15.633Z,25.01
2022-08-19T19:05:44.433Z,24.99
2022-08-19T19:08:13.675Z,24.97
2022-08-19T19:10:42.355Z,24.94
2022-08-19T19:13:09.149Z,24.92
2022-08-19T19:15:37.128Z,24.92
2022-08-19T19:18:03.984Z,24.90
2022-08-19T19:20:36.402Z,24.89
2022-08-19T19:23:04.208Z,24.90
2022-08-19T19:25:44.799Z,24.92
2022-08-19T19:28:24.086Z,24.77
2022-08-19T19:30:53.306Z,24.70
2022-08-19T19:33:20.582Z,24.62
2022-08-19T19:35:49.329Z,24.55
2022-08-19T19:38:19.307Z,24.51
2022-08-19T19:44:30.713Z,24.43
2022-08-19T19:47:09.717Z,24.46
2022-08-19T19:53:08.726Z,24.33
2022-08-19T19:56:21.594Z,24.32
2022-08-19T20:02:06.600Z,24.23
2022-08-19T20:04:40.501Z,24.19
2022-08-19T20:07:18.885Z,24.09
2022-08-19T20:13:39.897Z,24.01
2022-08-19T20:16:43.510Z,23.93
2022-08-19T20:19:15.252Z,23.93
2022-08-19T20:22:08.964Z,23.99
2022-08-19T20:24:45.001Z,24.01
2022-08-19T20:27:31.102Z,24.05
2022-08-19T20:30:25.626Z,24.02
2022-08-19T20:32:58.341Z,24.05
2022-08-19T20:35:54.018Z,24.03
2022-08-19T20:38:23.190Z,23.99
2022-08-19T20:44:11.739Z,24.02
2022-08-19T20:46:55.378Z,23.95
2022-08-19T20:49:35.861Z,23.96
2022-08-19T20:52:14.712Z,23.85
2022-08-19T20:54:47.525Z,23.83
2022-08-19T20:57:45.038Z,23.85
2022-08-19T21:00:42.919Z,23.88
2022-08-19T21:06:33.795Z,23.74
2022-08-19T21:09:16.387Z,23.56
2022-08-19T21:11:45.961Z,23.53
2022-08-19T21:14:28.335Z,23.57
2022-08-19T21:17:05.323Z,23.61
2022-08-19T21:20:01.809Z,23.41
2022-08-19T21:22:40.189Z,23.38
2022-08-19T21:25:15.981Z,23.30
2022-08-19T21:28:47.102Z,23.34
2022-08-19T21:34:21.849Z,23.13
2022-08-19T21:36:51.711Z,23.05
2022-08-19T21:39:26.564Z,22.99
2022-08-19T21:42:04.466Z,22.88
2022-08-19T21:45:36.174Z,22.88
2022-08-19T21:48:15.957Z,22.96
2022-08-19T21:50:43.621Z,23.00
2022-08-19T21:53:17.541Z,23.07
2022-08-19T21:55:44.573Z,23.02
2022-08-19T21:58:11.895Z,22.91
2022-08-19T22:00:39.804Z,22.74
2022-08-19T22:03:06.600Z,22.65
2022-08-19T22:05:33.997Z,22.67
2022-08-19T22:08:02.023Z,22.69
2022-08-19T22:10:31.384Z,22.62
2022-08-19T22:12:58.200Z,22.61
2022-08-19T22:15:29.280Z,22.55
2022-08-19T22:17:59.594Z,22.49
2022-08-19T22:20:28.710Z,22.52
2022-08-19T22:23:01.951Z,22.52
2022-08-19T22:25:32.270Z,22.59
2022-08-19T22:28:01.772Z,22.55
2022-08-19T22:30:32.408Z,22.54
2022-08-19T22:33:02.325Z,22.51
2022-08-19T22:35:31.646Z,22.54
2022-08-19T22:37:59.235Z,22.47
2022-08-19T22:40:28.359Z,22.41
2022-08-19T22:43:03.566Z,22.41
2022-08-19T22:45:30.616Z,22.35
2022-08-19T22:47:57.891Z,22.39
2022-08-19T22:50:24.689Z,22.40
2022-08-19T22:53:02.728Z,22.47
2022-08-19T22:55:32.428Z,22.46
2022-08-19T22:58:01.608Z,22.46
2022-08-19T23:00:29.054Z,22.46
2022-08-19T23:02:57.465Z,22.44
2022-08-19T23:05:27.089Z,22.42
2022-08-19T23:07:54.622Z,22.40
2022-08-19T23:10:27.080Z,22.43
2022-08-19T23:12:56.514Z,22.43
2022-08-19T23:15:26.017Z,22.36
2022-08-19T23:17:54.682Z,22.40
2022-08-19T23:20:23.381Z,22.41
2022-08-19T23:22:51.006Z,22.37
2022-08-19T23:25:20.421Z,22.25
2022-08-19T23:28:06.619Z,22.32
2022-08-19T23:30:35.569Z,22.33
2022-08-19T23:33:11.018Z,22.27
2022-08-19T23:35:40.799Z,22.11
2022-08-19T23:38:08.620Z,22.15
2022-08-19T23:40:37.081Z,22.16
2022-08-19T23:43:07.924Z,22.20
2022-08-19T23:45:38.343Z,22.19
2022-08-19T23:48:06.618Z,22.14
2022-08-19T23:50:34.385Z,22.17
2022-08-19T23:53:02.214Z,22.04
2022-08-19T23:55:32.682Z,21.98
2022-08-19T23:57:59.908Z,21.96
